Time;durP1;ratioP1;P1;durP2;ratioP2;P2;SDS_P1;SDS_P2;PMS_P1;PMS_P2;Temp;Humidity;BMP_temperature;BMP_pressure;BME280_temperature;BME280_humidity;BME280_pressure;Samples;Min_cycle;Max_cycle;Signal;HPM_P1;HPM_P2
2023/04/27 00:00:57;;;;;;;5.10;2.40;;;;;;;-128.00;-1.00;-1.00;97888;296;1002729;-33
2023/04/27 00:03:23;;;;;;;5.30;2.50;;;;;;;-128.00;-1.00;-1.00;97868;296;1003265;-33
2023/04/27 00:05:49;;;;;;;5.70;2.00;;;;;;;-128.00;-1.00;-1.00;97745;296;1004810;-29
2023/04/27 00:08:15;;;;;;;4.10;1.90;;;;;;;-128.00;-1.00;-1.00;93858;296;3003125;-33
2023/04/27 00:10:40;;;;;;;8.50;3.00;;;;;;;-128.00;-1.00;-1.00;96673;296;1512189;-34
2023/04/27 00:13:07;;;;;;;14.30;2.60;;;;;;;-128.00;-1.00;-1.00;39132;296;7506567;-29
2023/04/27 00:15:34;;;;;;;20.00;5.10;;;;;;;-128.00;-1.00;-1.00;18869;308;7504130;-30
2023/04/27 00:18:00;;;;;;;21.40;7.80;;;;;;;-128.00;-1.00;-1.00;18869;296;7505073;-33
2023/04/27 00:20:26;;;;;;;21.90;7.20;;;;;;;-128.00;-1.00;-1.00;18478;341;7505982;-30
2023/04/27 00:22:51;;;;;;;20.90;4.60;;;;;;;-128.00;-1.00;-1.00;18463;296;7504296;-34
2023/04/27 00:25:17;;;;;;;15.80;4.80;;;;;;;-128.00;-1.00;-1.00;18471;296;7504215;-30
2023/04/27 00:27:43;;;;;;;10.80;5.10;;;;;;;-128.00;-1.00;-1.00;18460;296;7504521;-34
2023/04/27 00:30:09;;;;;;;4.00;2.40;;;;;;;-128.00;-1.00;-1.00;18469;296;7505127;-34
2023/04/27 00:32:36;;;;;;;5.40;1.80;;;;;;;-128.00;-1.00;-1.00;18869;338;7504597;-34
2023/04/27 00:35:02;;;;;;;4.50;2.80;;;;;;;-128.00;-1.00;-1.00;18879;296;7504235;-34
2023/04/27 00:37:29;;;;;;;6.50;2.00;;;;;;;-128.00;-1.00;-1.00;18884;296;7505302;-34
2023/04/27 00:39:55;;;;;;;8.80;2.10;;;;;;;-128.00;-1.00;-1.00;18859;296;7504950;-35
2023/04/27 00:42:23;;;;;;;6.90;3.30;;;;;;;-128.00;-1.00;-1.00;18874;296;7504690;-29
2023/04/27 00:44:49;;;;;;;4.30;2.10;;;;;;;-128.00;-1.00;-1.00;18491;297;7506014;-29
2023/04/27 00:47:16;;;;;;;5.90;3.20;;;;;;;-128.00;-1.00;-1.00;18457;296;7505854;-34
2023/04/27 00:49:41;;;;;;;3.10;1.50;;;;;;;-128.00;-1.00;-1.00;18492;313;7506672;-30
2023/04/27 00:52:07;;;;;;;5.70;2.30;;;;;;;-128.00;-1.00;-1.00;18867;297;7504371;-29
2023/04/27 00:54:34;;;;;;;3.30;1.30;;;;;;;-128.00;-1.00;-1.00;18883;297;7504648;-33
2023/04/27 00:57:00;;;;;;;3.20;1.10;;;;;;;-128.00;-1.00;-1.00;18869;297;7504308;-33
2023/04/27 00:59:26;;;;;;;3.40;2.30;;;;;;;-128.00;-1.00;-1.00;18863;297;7504715;-28
2023/04/27 01:01:53;;;;;;;5.60;3.00;;;;;;;-128.00;-1.00;-1.00;18859;298;7504210;-29
2023/04/27 01:04:20;;;;;;;6.10;3.60;;;;;;;-128.00;-1.00;-1.00;18481;297;7504630;-33
2023/04/27 01:06:46;;;;;;;5.30;3.10;;;;;;;-128.00;-1.00;-1.00;18448;309;7505937;-29
2023/04/27 01:09:12;;;;;;;9.30;4.20;;;;;;;-128.00;-1.00;-1.00;18462;297;7504680;-29
2023/04/27 01:11:37;;;;;;;10.90;4.20;;;;;;;-128.00;-1.00;-1.00;18447;297;7506065;-34
2023/04/27 01:14:05;;;;;;;12.30;4.50;;;;;;;-128.00;-1.00;-1.00;18869;297;7504660;-34
2023/04/27 01:16:32;;;;;;;7.30;4.90;;;;;;;-128.00;-1.00;-1.00;18454;349;7506041;-33
2023/04/27 01:18:58;;;;;;;9.80;4.40;;;;;;;-128.00;-1.00;-1.00;18485;297;7506200;-30
2023/04/27 01:21:25;;;;;;;7.50;4.10;;;;;;;-128.00;-1.00;-1.00;18470;297;7504528;-30
2023/04/27 01:23:51;;;;;;;4.70;3.20;;;;;;;-128.00;-1.00;-1.00;18464;297;7505868;-34
2023/04/27 01:26:16;;;;;;;7.30;3.00;;;;;;;-128.00;-1.00;-1.00;18463;297;7505077;-31
2023/04/27 01:28:42;;;;;;;4.30;2.50;;;;;;;-128.00;-1.00;-1.00;18458;297;7504505;-30
2023/04/27 01:31:11;;;;;;;9.90;4.00;;;;;;;-128.00;-1.00;-1.00;18877;297;7505151;-29
2023/04/27 01:33:38;;;;;;;4.70;2.90;;;;;;;-128.00;-1.00;-1.00;18472;297;7506314;-34
2023/04/27 01:36:05;;;;;;;4.90;2.70;;;;;;;-128.00;-1.00;-1.00;18459;297;7504671;-34
2023/04/27 01:38:33;;;;;;;4.50;1.80;;;;;;;-128.00;-1.00;-1.00;18454;297;7504648;-30
2023/04/27 01:41:01;;;;;;;4.10;2.20;;;;;;;-128.00;-1.00;-1.00;18464;297;7505246;-29
2023/04/27 01:43:28;;;;;;;4.00;2.20;;;;;;;-128.00;-1.00;-1.00;18459;341;7504297;-29
2023/04/27 01:45:54;;;;;;;1.80;1.50;;;;;;;-128.00;-1.00;-1.00;18466;297;7505075;-29
2023/04/27 01:48:19;;;;;;;4.70;1.70;;;;;;;-128.00;-1.00;-1.00;18479;297;7506245;-33
2023/04/27 01:50:45;;;;;;;4.30;2.70;;;;;;;-128.00;-1.00;-1.00;18870;309;7504389;-29
2023/04/27 01:53:11;;;;;;;4.30;2.70;;;;;;;-128.00;-1.00;-1.00;18867;297;7504484;-30
2023/04/27 01:55:37;;;;;;;5.20;3.00;;;;;;;-128.00;-1.00;-1.00;18872;297;7504398;-33
2023/04/27 01:58:04;;;;;;;8.80;3.60;;;;;;;-128.00;-1.00;-1.00;18863;297;7505221;-30
2023/04/27 02:00:30;;;;;;;7.00;3.10;;;;;;;-128.00;-1.00;-1.00;18879;297;7505102;-29
2023/04/27 02:02:57;;;;;;;7.10;2.80;;;;;;;-128.00;-1.00;-1.00;18858;297;7504990;-31
2023/04/27 02:05:23;;;;;;;9.20;3.60;;;;;;;-128.00;-1.00;-1.00;18475;297;7506176;-29
2023/04/27 02:07:49;;;;;;;4.40;2.30;;;;;;;-128.00;-1.00;-1.00;18424;299;7505260;-31
2023/04/27 02:10:15;;;;;;;5.00;2.60;;;;;;;-128.00;-1.00;-1.00;18497;297;7504974;-29
2023/04/27 02:12:40;;;;;;;5.90;3.30;;;;;;;-128.00;-1.00;-1.00;18455;325;7505088;-34
2023/04/27 02:15:07;;;;;;;3.80;2.60;;;;;;;-128.00;-1.00;-1.00;18457;297;7506180;-30
2023/04/27 02:17:33;;;;;;;3.60;2.50;;;;;;;-128.00;-1.00;-1.00;18464;297;7505787;-34
2023/04/27 02:19:59;;;;;;;5.30;2.90;;;;;;;-128.00;-1.00;-1.00;18465;297;7505071;-34
2023/04/27 02:22:25;;;;;;;5.20;2.70;;;;;;;-128.00;-1.00;-1.00;18472;297;7506971;-30
2023/04/27 02:24:51;;;;;;;5.30;2.20;;;;;;;-128.00;-1.00;-1.00;18478;297;7504332;-31
2023/04/27 02:27:17;;;;;;;5.70;2.50;;;;;;;-128.00;-1.00;-1.00;18460;297;7505070;-30
2023/04/27 02:29:43;;;;;;;6.70;3.70;;;;;;;-128.00;-1.00;-1.00;18888;297;7504398;-34
2023/04/27 02:32:09;;;;;;;7.80;3.50;;;;;;;-128.00;-1.00;-1.00;18849;298;7504151;-29
2023/04/27 02:34:35;;;;;;;10.90;4.00;;;;;;;-128.00;-1.00;-1.00;18868;297;7504843;-28
2023/04/27 02:37:01;;;;;;;7.80;4.10;;;;;;;-128.00;-1.00;-1.00;18844;297;7504343;-29
2023/04/27 02:39:27;;;;;;;8.80;4.10;;;;;;;-128.00;-1.00;-1.00;18871;321;7504517;-30
2023/04/27 02:41:53;;;;;;;7.30;3.40;;;;;;;-128.00;-1.00;-1.00;18864;313;7504969;-29
2023/04/27 02:44:19;;;;;;;15.40;3.70;;;;;;;-128.00;-1.00;-1.00;18860;320;7505490;-33
2023/04/27 02:46:46;;;;;;;7.80;4.00;;;;;;;-128.00;-1.00;-1.00;18862;297;7504702;-33
2023/04/27 02:49:12;;;;;;;7.20;3.20;;;;;;;-128.00;-1.00;-1.00;18867;297;7504756;-29
2023/04/27 02:51:38;;;;;;;9.40;3.40;;;;;;;-128.00;-1.00;-1.00;18860;289;7506107;-30
2023/04/27 02:54:04;;;;;;;8.90;3.40;;;;;;;-128.00;-1.00;-1.00;18890;341;7505171;-29
2023/04/27 02:56:30;;;;;;;7.90;3.80;;;;;;;-128.00;-1.00;-1.00;18889;297;7504594;-34
2023/04/27 02:58:57;;;;;;;12.10;3.50;;;;;;;-128.00;-1.00;-1.00;19051;297;7505379;-33
2023/04/27 03:01:23;;;;;;;8.60;3.70;;;;;;;-128.00;-1.00;-1.00;18856;297;7504809;-29
2023/04/27 03:03:49;;;;;;;5.10;3.10;;;;;;;-128.00;-1.00;-1.00;18859;349;7505071;-29
2023/04/27 03:06:15;;;;;;;7.80;3.60;;;;;;;-128.00;-1.00;-1.00;18862;298;7505203;-29
2023/04/27 03:08:42;;;;;;;8.10;4.60;;;;;;;-128.00;-1.00;-1.00;18867;297;7504973;-33
2023/04/27 03:11:08;;;;;;;12.60;4.30;;;;;;;-128.00;-1.00;-1.00;18881;297;7504203;-31
2023/04/27 03:13:40;;;;;;;10.30;4.20;;;;;;;-128.00;-1.00;-1.00;18876;349;7504773;-33
2023/04/27 03:16:09;;;;;;;6.90;3.90;;;;;;;-128.00;-1.00;-1.00;18471;297;7506099;-29
2023/04/27 03:18:34;;;;;;;11.70;4.80;;;;;;;-128.00;-1.00;-1.00;18460;297;7504533;-33
2023/04/27 03:21:12;;;;;;;5.90;3.70;;;;;;;-128.00;-1.00;-1.00;18456;297;7504625;-29
2023/04/27 03:23:38;;;;;;;3.50;2.30;;;;;;;-128.00;-1.00;-1.00;18478;297;7504723;-30
2023/04/27 03:26:07;;;;;;;7.40;4.10;;;;;;;-128.00;-1.00;-1.00;18457;297;7506288;-34
2023/04/27 03:28:33;;;;;;;7.20;3.80;;;;;;;-128.00;-1.00;-1.00;18472;297;7504825;-30
2023/04/27 03:31:00;;;;;;;6.00;2.60;;;;;;;-128.00;-1.00;-1.00;18455;297;7505308;-34
2023/04/27 03:33:28;;;;;;;10.90;2.50;;;;;;;-128.00;-1.00;-1.00;18450;297;7505647;-30
2023/04/27 03:35:56;;;;;;;14.20;4.50;;;;;;;-128.00;-1.00;-1.00;18453;297;7507004;-30
2023/04/27 03:38:21;;;;;;;12.00;4.40;;;;;;;-128.00;-1.00;-1.00;18475;297;7504875;-33
2023/04/27 03:40:47;;;;;;;7.50;4.30;;;;;;;-128.00;-1.00;-1.00;18459;345;7505197;-34
2023/04/27 03:43:13;;;;;;;13.80;4.90;;;;;;;-128.00;-1.00;-1.00;18469;297;7504852;-33
2023/04/27 03:45:39;;;;;;;7.10;4.80;;;;;;;-128.00;-1.00;-1.00;18468;297;7504121;-34
2023/04/27 03:48:05;;;;;;;6.30;4.50;;;;;;;-128.00;-1.00;-1.00;18452;297;7505892;-34
2023/04/27 03:50:31;;;;;;;10.10;4.70;;;;;;;-128.00;-1.00;-1.00;18471;297;7504823;-34
2023/04/27 03:52:57;;;;;;;10.00;4.50;;;;;;;-128.00;-1.00;-1.00;18489;289;7505263;-34
2023/04/27 03:55:22;;;;;;;8.60;4.70;;;;;;;-128.00;-1.00;-1.00;18490;297;7504129;-29
2023/04/27 03:57:48;;;;;;;14.80;5.50;;;;;;;-128.00;-1.00;-1.00;18873;297;7504381;-29
2023/04/27 04:00:15;;;;;;;16.80;5.90;;;;;;;-128.00;-1.00;-1.00;18865;297;7504983;-33
2023/04/27 04:02:42;;;;;;;6.50;4.70;;;;;;;-128.00;-1.00;-1.00;18463;297;7505756;-36
2023/04/27 04:05:08;;;;;;;15.60;4.10;;;;;;;-128.00;-1.00;-1.00;18466;297;7505936;-34
2023/04/27 04:07:34;;;;;;;11.40;3.60;;;;;;;-128.00;-1.00;-1.00;18466;297;7504820;-34
2023/04/27 04:10:00;;;;;;;11.80;4.70;;;;;;;-128.00;-1.00;-1.00;18460;297;7505471;-29
2023/04/27 04:12:25;;;;;;;9.80;4.00;;;;;;;-128.00;-1.00;-1.00;18426;297;7506228;-34
2023/04/27 04:14:51;;;;;;;27.30;6.30;;;;;;;-128.00;-1.00;-1.00;18452;297;7504916;-29
2023/04/27 04:17:17;;;;;;;13.70;5.20;;;;;;;-128.00;-1.00;-1.00;18451;297;7504208;-34
2023/04/27 04:19:42;;;;;;;12.70;4.00;;;;;;;-128.00;-1.00;-1.00;18453;297;7506178;-30
2023/04/27 04:22:08;;;;;;;12.00;4.90;;;;;;;-128.00;-1.00;-1.00;18447;299;7505830;-30
2023/04/27 04:24:33;;;;;;;12.20;5.10;;;;;;;-128.00;-1.00;-1.00;18471;349;7506165;-30
2023/04/27 04:27:00;;;;;;;7.90;4.40;;;;;;;-128.00;-1.00;-1.00;18861;297;7504905;-33
2023/04/27 04:29:26;;;;;;;9.70;5.20;;;;;;;-128.00;-1.00;-1.00;18879;297;7504419;-29
2023/04/27 04:31:52;;;;;;;10.70;4.70;;;;;;;-128.00;-1.00;-1.00;18457;338;7506219;-32
2023/04/27 04:34:18;;;;;;;9.10;4.60;;;;;;;-128.00;-1.00;-1.00;18885;297;7504371;-31
2023/04/27 04:36:44;;;;;;;8.10;4.80;;;;;;;-128.00;-1.00;-1.00;18458;297;7504551;-34
2023/04/27 05:19:17;;;;;;;7.20;4.10;;;;;;;-101.94;19.20;19932.71;97365;297;2544599;-33
2023/04/27 05:21:46;;;;;;;8.50;3.80;;;;;;;-128.00;-1.00;-1.00;97427;297;1002829;-29
2023/04/27 05:24:12;;;;;;;13.70;4.60;;;;;;;-128.00;-1.00;-1.00;97771;298;1002602;-33
2023/04/27 05:26:37;;;;;;;10.70;3.60;;;;;;;-128.00;-1.00;-1.00;97670;298;1003300;-29
2023/04/27 05:29:03;;;;;;;8.10;4.60;;;;;;;-128.00;-1.00;-1.00;97779;298;1002970;-32
2023/04/27 05:31:29;;;;;;;13.30;3.70;;;;;;;-128.00;-1.00;-1.00;97744;298;1003490;-33
2023/04/27 05:33:54;;;;;;;8.80;3.90;;;;;;;-128.00;-1.00;-1.00;97755;298;1004247;-32
2023/04/27 05:36:20;;;;;;;19.80;4.50;;;;;;;-128.00;-1.00;-1.00;97775;298;1003113;-35
2023/04/27 05:38:46;;;;;;;6.30;4.30;;;;;;;-128.00;-1.00;-1.00;97751;298;1003642;-33
2023/04/27 05:41:11;;;;;;;13.70;3.90;;;;;;;-128.00;-1.00;-1.00;97839;298;1003412;-35
2023/04/27 05:43:37;;;;;;;9.60;4.70;;;;;;;-128.00;-1.00;-1.00;97790;298;1002700;-35
2023/04/27 05:46:03;;;;;;;10.90;3.80;;;;;;;-128.00;-1.00;-1.00;97827;297;1005070;-31
2023/04/27 05:48:29;;;;;;;14.60;2.30;;;;;;;-128.00;-1.00;-1.00;97804;297;1002870;-30
2023/04/27 05:51:00;;;;;;;12.10;3.80;;;;;;;-128.00;-1.00;-1.00;97735;298;1003111;-31
2023/04/27 05:53:26;;;;;;;12.60;4.40;;;;;;;-128.00;-1.00;-1.00;97740;297;1003336;-31
2023/04/27 05:55:51;;;;;;;16.90;5.10;;;;;;;-128.00;-1.00;-1.00;97472;298;1003600;-35
2023/04/27 05:58:17;;;;;;;12.80;4.30;;;;;;;-128.00;-1.00;-1.00;97778;298;1004652;-31
2023/04/27 06:00:43;;;;;;;6.20;3.10;;;;;;;-128.00;-1.00;-1.00;97711;297;1002666;-31
2023/04/27 06:03:10;;;;;;;7.50;3.60;;;;;;;-128.00;-1.00;-1.00;97827;298;1003960;-30
2023/04/27 06:05:36;;;;;;;7.10;4.20;;;;;;;-128.00;-1.00;-1.00;97820;298;1003382;-35
2023/04/27 06:08:01;;;;;;;9.40;3.50;;;;;;;-128.00;-1.00;-1.00;97829;297;1002735;-36
2023/04/27 06:10:27;;;;;;;6.50;4.20;;;;;;;-128.00;-1.00;-1.00;97662;298;1004789;-30
2023/04/27 06:12:53;;;;;;;7.60;4.00;;;;;;;-128.00;-1.00;-1.00;97805;297;1004043;-35
2023/04/27 06:15:19;;;;;;;5.80;4.80;;;;;;;-128.00;-1.00;-1.00;97758;298;1003138;-35
2023/04/27 06:17:45;;;;;;;14.90;4.30;;;;;;;-128.00;-1.00;-1.00;97791;298;1003113;-35
2023/04/27 06:20:11;;;;;;;6.60;3.00;;;;;;;-128.00;-1.00;-1.00;97853;299;1005447;-30
2023/04/27 06:22:37;;;;;;;20.60;3.50;;;;;;;-128.00;-1.00;-1.00;97652;299;1002962;-31
2023/04/27 06:25:04;;;;;;;4.50;2.00;;;;;;;-128.00;-1.00;-1.00;97659;288;1003316;-31
2023/04/27 06:27:30;;;;;;;2.40;1.50;;;;;;;-128.00;-1.00;-1.00;97706;298;1003311;-30
2023/04/27 06:29:55;;;;;;;5.10;2.20;;;;;;;-128.00;-1.00;-1.00;97862;286;1003738;-38
2023/04/27 06:32:21;;;;;;;10.00;3.90;;;;;;;-128.00;-1.00;-1.00;97783;298;1003273;-34
2023/04/27 06:34:48;;;;;;;5.90;4.10;;;;;;;-128.00;-1.00;-1.00;97785;298;1004125;-30
2023/04/27 06:37:15;;;;;;;4.30;2.20;;;;;;;-128.00;-1.00;-1.00;97889;290;1003736;-34
2023/04/27 06:39:44;;;;;;;6.90;2.90;;;;;;;-128.00;-1.00;-1.00;97805;298;1003081;-29
2023/04/27 06:42:10;;;;;;;6.20;3.90;;;;;;;-128.00;-1.00;-1.00;97811;298;1003376;-34
2023/04/27 06:44:39;;;;;;;4.80;3.20;;;;;;;-128.00;-1.00;-1.00;97849;299;1004004;-30
2023/04/27 06:47:05;;;;;;;7.20;4.50;;;;;;;-128.00;-1.00;-1.00;97853;298;1003761;-29
2023/04/27 06:49:30;;;;;;;10.20;4.10;;;;;;;-128.00;-1.00;-1.00;97821;298;1003117;-29
2023/04/27 06:51:56;;;;;;;9.20;4.00;;;;;;;-128.00;-1.00;-1.00;97784;298;1003444;-34
2023/04/27 06:54:21;;;;;;;5.30;4.20;;;;;;;-128.00;-1.00;-1.00;97836;298;1003443;-30
2023/04/27 06:56:47;;;;;;;10.90;4.30;;;;;;;-128.00;-1.00;-1.00;97757;299;1003318;-38
2023/04/27 06:59:12;;;;;;;9.30;3.60;;;;;;;-128.00;-1.00;-1.00;97881;299;1004060;-34
2023/04/27 07:01:38;;;;;;;4.20;2.40;;;;;;;-128.00;-1.00;-1.00;97772;298;1002742;-32
2023/04/27 07:04:04;;;;;;;3.50;2.60;;;;;;;-128.00;-1.00;-1.00;97765;298;1002973;-36
2023/04/27 07:06:31;;;;;;;8.00;2.90;;;;;;;-128.00;-1.00;-1.00;97693;298;1004450;-31
2023/04/27 07:08:57;;;;;;;8.70;3.20;;;;;;;-128.00;-1.00;-1.00;97856;299;1003956;-31
2023/04/27 07:11:22;;;;;;;3.50;2.10;;;;;;;-128.00;-1.00;-1.00;97766;298;1003297;-34
2023/04/27 07:13:48;;;;;;;4.60;2.60;;;;;;;-128.00;-1.00;-1.00;97745;298;1003032;-30
2023/04/27 07:16:14;;;;;;;39.30;2.20;;;;;;;-128.00;-1.00;-1.00;97748;298;1003934;-32
2023/04/27 07:18:40;;;;;;;4.70;2.70;;;;;;;-128.00;-1.00;-1.00;97881;298;1003619;-33
2023/04/27 07:21:06;;;;;;;3.90;2.30;;;;;;;-128.00;-1.00;-1.00;97780;298;1004887;-31
2023/04/27 07:23:32;;;;;;;6.10;2.00;;;;;;;-128.00;-1.00;-1.00;97583;299;1002939;-30
2023/04/27 07:25:58;;;;;;;6.40;2.50;;;;;;;-128.00;-1.00;-1.00;97720;287;1005646;-39
2023/04/27 07:28:24;;;;;;;4.40;2.20;;;;;;;-128.00;-1.00;-1.00;97864;298;1003574;-36
2023/04/27 07:30:50;;;;;;;6.50;2.30;;;;;;;-128.00;-1.00;-1.00;97596;288;1003216;-30
2023/04/27 07:33:16;;;;;;;3.70;2.10;;;;;;;-128.00;-1.00;-1.00;97832;299;1003640;-33
2023/04/27 07:35:42;;;;;;;4.00;2.50;;;;;;;-128.00;-1.00;-1.00;97847;298;1003327;-31
2023/04/27 07:38:07;;;;;;;5.30;2.60;;;;;;;-128.00;-1.00;-1.00;97712;299;1004017;-35
2023/04/27 07:40:33;;;;;;;4.40;1.40;;;;;;;-128.00;-1.00;-1.00;97815;298;1003036;-30
2023/04/27 07:42:59;;;;;;;2.80;1.20;;;;;;;-128.00;-1.00;-1.00;97697;298;1003878;-34
2023/04/27 07:47:54;;;;;;;5.30;1.90;;;;;;;-128.00;-1.00;-1.00;97766;298;1004363;-33
2023/04/27 07:50:23;;;;;;;4.40;2.80;;;;;;;-128.00;-1.00;-1.00;97735;298;1003359;-32
2023/04/27 07:52:48;;;;;;;5.50;2.40;;;;;;;-128.00;-1.00;-1.00;97720;292;1003113;-34
2023/04/27 07:55:14;;;;;;;5.40;2.60;;;;;;;-128.00;-1.00;-1.00;97737;298;1003334;-29
2023/04/27 07:57:40;;;;;;;6.80;2.50;;;;;;;-128.00;-1.00;-1.00;97720;299;1003394;-32
2023/04/27 08:00:08;;;;;;;8.60;2.90;;;;;;;-128.00;-1.00;-1.00;97788;298;1003020;-31
2023/04/27 08:02:34;;;;;;;1.50;1.00;;;;;;;-128.00;-1.00;-1.00;97772;298;1003459;-31
2023/04/27 08:05:01;;;;;;;6.40;2.60;;;;;;;-128.00;-1.00;-1.00;97740;298;1002873;-29
2023/04/27 08:07:27;;;;;;;2.40;1.50;;;;;;;-128.00;-1.00;-1.00;97809;298;1003161;-30
2023/04/27 08:09:53;;;;;;;3.20;2.20;;;;;;;-128.00;-1.00;-1.00;97740;287;1003919;-31
2023/04/27 08:12:19;;;;;;;2.50;1.60;;;;;;;-128.00;-1.00;-1.00;97770;298;1003860;-34
2023/04/27 08:14:45;;;;;;;4.10;1.80;;;;;;;-128.00;-1.00;-1.00;97684;298;1002976;-29
2023/04/27 08:17:11;;;;;;;4.10;2.20;;;;;;;-128.00;-1.00;-1.00;97790;299;1003653;-34
2023/04/27 08:19:37;;;;;;;6.90;2.20;;;;;;;-128.00;-1.00;-1.00;97780;299;1003770;-29
2023/04/27 08:22:03;;;;;;;10.80;2.80;;;;;;;-128.00;-1.00;-1.00;97817;298;1003205;-30
2023/04/27 08:24:28;;;;;;;1.80;1.40;;;;;;;-128.00;-1.00;-1.00;97688;299;1002964;-33
2023/04/27 08:26:54;;;;;;;4.80;2.10;;;;;;;-128.00;-1.00;-1.00;97718;298;1003180;-30
2023/04/27 08:29:21;;;;;;;4.30;1.80;;;;;;;-128.00;-1.00;-1.00;97699;299;1003977;-33
2023/04/27 08:31:47;;;;;;;4.90;2.10;;;;;;;-128.00;-1.00;-1.00;97806;298;1003157;-34
2023/04/27 08:34:13;;;;;;;9.70;2.40;;;;;;;-128.00;-1.00;-1.00;97736;298;1002619;-30
2023/04/27 08:36:38;;;;;;;14.00;3.60;;;;;;;-128.00;-1.00;-1.00;97702;299;1003368;-34
2023/04/27 08:39:06;;;;;;;3.80;2.40;;;;;;;-128.00;-1.00;-1.00;97793;298;1003569;-34
2023/04/27 08:41:32;;;;;;;1.70;0.70;;;;;;;-128.00;-1.00;-1.00;97734;298;1003926;-29
2023/04/27 08:43:58;;;;;;;6.40;2.10;;;;;;;-128.00;-1.00;-1.00;97741;298;1003247;-34
2023/04/27 08:46:25;;;;;;;4.10;2.10;;;;;;;-128.00;-1.00;-1.00;97865;298;1004293;-29
2023/04/27 08:48:52;;;;;;;3.60;2.00;;;;;;;-128.00;-1.00;-1.00;97727;299;1003046;-34
2023/04/27 08:51:18;;;;;;;5.70;1.80;;;;;;;-128.00;-1.00;-1.00;97747;298;1002964;-30
2023/04/27 08:53:48;;;;;;;5.30;2.70;;;;;;;-128.00;-1.00;-1.00;97794;298;1003095;-32
2023/04/27 08:56:14;;;;;;;4.40;2.70;;;;;;;-128.00;-1.00;-1.00;97736;288;1003796;-35
2023/04/27 08:58:39;;;;;;;3.90;1.90;;;;;;;-128.00;-1.00;-1.00;97726;298;1004262;-35
2023/04/27 09:01:06;;;;;;;2.40;1.80;;;;;;;-128.00;-1.00;-1.00;97802;298;1003752;-35
2023/04/27 09:03:33;;;;;;;4.70;2.00;;;;;;;-128.00;-1.00;-1.00;97804;298;1002654;-30
2023/04/27 09:06:00;;;;;;;3.80;2.10;;;;;;;-128.00;-1.00;-1.00;97826;298;1005260;-32
2023/04/27 09:08:26;;;;;;;2.70;1.40;;;;;;;-128.00;-1.00;-1.00;97711;298;1002915;-34
2023/04/27 09:10:53;;;;;;;2.50;1.30;;;;;;;-128.00;-1.00;-1.00;97829;298;1005376;-31
2023/04/27 09:13:19;;;;;;;2.20;1.40;;;;;;;-128.00;-1.00;-1.00;97663;288;1003344;-35
2023/04/27 09:15:46;;;;;;;3.70;0.90;;;;;;;-128.00;-1.00;-1.00;97717;298;1004167;-30
2023/04/27 09:18:17;;;;;;;0.90;0.40;;;;;;;-128.00;-1.00;-1.00;97714;298;1003591;-34
2023/04/27 09:20:44;;;;;;;2.10;1.30;;;;;;;-128.00;-1.00;-1.00;97802;298;1004466;-34
2023/04/27 09:23:10;;;;;;;12.30;1.70;;;;;;;-128.00;-1.00;-1.00;97770;298;1003315;-34
2023/04/27 09:25:37;;;;;;;3.40;1.80;;;;;;;-128.00;-1.00;-1.00;97696;298;1002885;-30
2023/04/27 09:28:03;;;;;;;7.40;2.90;;;;;;;-128.00;-1.00;-1.00;97700;298;1002916;-30
2023/04/27 09:30:28;;;;;;;3.30;1.40;;;;;;;-128.00;-1.00;-1.00;97723;298;1002872;-32
2023/04/27 09:32:56;;;;;;;2.50;1.20;;;;;;;-128.00;-1.00;-1.00;97828;298;1003995;-33
2023/04/27 09:35:24;;;;;;;8.30;1.00;;;;;;;-128.00;-1.00;-1.00;97776;298;1004164;-30
2023/04/27 09:37:51;;;;;;;3.70;1.30;;;;;;;-128.00;-1.00;-1.00;97831;298;1003196;-29
2023/04/27 09:40:25;;;;;;;7.40;2.60;;;;;;;-128.00;-1.00;-1.00;97733;298;1002487;-35
2023/04/27 09:42:51;;;;;;;6.50;2.90;;;;;;;-128.00;-1.00;-1.00;97760;298;1003602;-29
2023/04/27 09:45:18;;;;;;;4.10;1.70;;;;;;;-128.00;-1.00;-1.00;97770;298;1004848;-33
2023/04/27 09:47:44;;;;;;;11.90;3.30;;;;;;;-128.00;-1.00;-1.00;97806;298;1002491;-33
2023/04/27 09:50:11;;;;;;;6.00;1.70;;;;;;;-128.00;-1.00;-1.00;97783;298;1002814;-31
2023/04/27 09:52:37;;;;;;;5.10;1.40;;;;;;;-128.00;-1.00;-1.00;97740;298;1004760;-29
2023/04/27 09:55:03;;;;;;;2.30;1.50;;;;;;;-128.00;-1.00;-1.00;97644;288;1002844;-29
2023/04/27 09:57:52;;;;;;;3.90;1.40;;;;;;;-128.00;-1.00;-1.00;97806;298;1004079;-34
2023/04/27 10:00:30;;;;;;;2.90;1.20;;;;;;;-128.00;-1.00;-1.00;97805;298;1003438;-30
2023/04/27 10:03:02;;;;;;;2.90;0.80;;;;;;;-128.00;-1.00;-1.00;97695;299;1002830;-35
2023/04/27 10:05:40;;;;;;;1.60;1.00;;;;;;;-128.00;-1.00;-1.00;97792;298;1003159;-33
2023/04/27 10:08:05;;;;;;;6.60;1.10;;;;;;;-128.00;-1.00;-1.00;97776;298;1003340;-35
2023/04/27 10:10:41;;;;;;;2.40;0.70;;;;;;;-128.00;-1.00;-1.00;97777;299;1004057;-34
2023/04/27 10:13:06;;;;;;;2.80;1.10;;;;;;;-128.00;-1.00;-1.00;94858;287;4481481;-34
2023/04/27 10:15:38;;;;;;;7.00;1.90;;;;;;;-128.00;-1.00;-1.00;37513;300;7444909;-34
2023/04/27 10:18:04;;;;;;;1.50;1.00;;;;;;;-128.00;-1.00;-1.00;40343;299;7055368;-30
2023/04/27 10:20:31;;;;;;;4.50;1.50;;;;;;;-128.00;-1.00;-1.00;87031;298;3002657;-36
2023/04/27 10:22:57;;;;;;;7.20;1.80;;;;;;;-128.00;-1.00;-1.00;92113;298;6324723;-29
2023/04/27 10:25:27;;;;;;;1.50;1.00;;;;;;;-128.00;-1.00;-1.00;97512;301;1002919;-32
2023/04/27 10:27:55;;;;;;;7.10;1.30;;;;;;;-128.00;-1.00;-1.00;93694;298;3002459;-34
2023/04/27 10:30:22;;;;;;;2.10;0.60;;;;;;;-128.00;-1.00;-1.00;94274;298;2852561;-30
2023/04/27 10:32:50;;;;;;;1.20;0.70;;;;;;;-128.00;-1.00;-1.00;93300;298;3931273;-33
2023/04/27 10:35:16;;;;;;;1.70;0.50;;;;;;;-128.00;-1.00;-1.00;94297;299;3003012;-35
2023/04/27 10:37:42;;;;;;;3.20;0.90;;;;;;;-128.00;-1.00;-1.00;80883;298;7053814;-31
2023/04/27 10:42:48;;;;;;;1.70;0.80;;;;;;;-128.00;-1.00;-1.00;94280;298;2686425;-35
2023/04/27 10:45:14;;;;;;;4.10;1.70;;;;;;;-128.00;-1.00;-1.00;85228;298;3578235;-35
2023/04/27 10:47:41;;;;;;;4.10;1.10;;;;;;;-128.00;-1.00;-1.00;95545;299;2849556;-29
2023/04/27 10:50:08;;;;;;;1.50;1.10;;;;;;;-128.00;-1.00;-1.00;76928;299;5406962;-30
2023/04/27 10:52:34;;;;;;;6.50;1.70;;;;;;;-128.00;-1.00;-1.00;52543;299;7333047;-34
2023/04/27 10:55:15;;;;;;;2.60;1.80;;;;;;;-128.00;-1.00;-1.00;25807;298;7503732;-34
2023/04/27 10:57:50;;;;;;;3.90;1.00;;;;;;;-128.00;-1.00;-1.00;27922;322;7471076;-35
2023/04/27 11:00:22;;;;;;;4.60;1.40;;;;;;;-128.00;-1.00;-1.00;27369;298;5719112;-35
2023/04/27 11:02:48;;;;;;;4.10;0.90;;;;;;;-128.00;-1.00;-1.00;25846;298;5556372;-35
2023/04/27 11:05:19;;;;;;;2.30;1.00;;;;;;;-128.00;-1.00;-1.00;26581;298;7504019;-31
2023/04/27 11:48:28;;;;;;;2.40;1.60;;;;;;;-100.42;9.47;19945.60;97635;284;2544503;-34
2023/04/27 11:50:57;;;;;;;2.70;1.10;;;;;;;-128.00;-1.00;-1.00;97570;286;1003324;-34
2023/04/27 11:53:36;;;;;;;2.00;1.10;;;;;;;-128.00;-1.00;-1.00;97826;297;1002781;-29
2023/04/27 11:56:04;;;;;;;3.40;0.90;;;;;;;-128.00;-1.00;-1.00;97709;297;1003324;-30
2023/04/27 11:58:33;;;;;;;4.20;3.90;;;;;;;-128.00;-1.00;-1.00;97833;297;1002824;-34
2023/04/27 12:00:59;;;;;;;9.00;3.70;;;;;;;-128.00;-1.00;-1.00;97907;297;1004006;-29
2023/04/27 12:03:26;;;;;;;3.60;1.00;;;;;;;-128.00;-1.00;-1.00;97783;297;1002984;-29
2023/04/27 12:05:52;;;;;;;4.80;1.50;;;;;;;-128.00;-1.00;-1.00;97795;297;1004073;-34
2023/04/27 12:08:19;;;;;;;2.70;0.70;;;;;;;-128.00;-1.00;-1.00;97802;297;1003626;-33
2023/04/27 12:10:45;;;;;;;1.40;1.00;;;;;;;-128.00;-1.00;-1.00;97808;297;1002600;-31
2023/04/27 12:13:11;;;;;;;2.00;0.60;;;;;;;-128.00;-1.00;-1.00;97789;297;1003077;-29
2023/04/27 12:15:37;;;;;;;2.80;1.10;;;;;;;-128.00;-1.00;-1.00;97808;297;1004538;-28
2023/04/27 12:18:03;;;;;;;2.40;1.20;;;;;;;-128.00;-1.00;-1.00;97744;297;1003452;-29
2023/04/27 12:20:29;;;;;;;2.60;0.90;;;;;;;-128.00;-1.00;-1.00;97782;297;1003084;-32
2023/04/27 12:22:56;;;;;;;1.70;1.00;;;;;;;-128.00;-1.00;-1.00;97776;297;1003366;-33
2023/04/27 12:25:21;;;;;;;1.50;0.50;;;;;;;-128.00;-1.00;-1.00;97815;297;1003919;-33
2023/04/27 12:27:48;;;;;;;3.40;1.10;;;;;;;-128.00;-1.00;-1.00;97834;285;1003358;-33
2023/04/27 12:30:13;;;;;;;4.00;1.20;;;;;;;-128.00;-1.00;-1.00;97785;297;1003514;-29
2023/04/27 12:32:40;;;;;;;7.90;1.30;;;;;;;-128.00;-1.00;-1.00;97852;297;1003489;-34
2023/04/27 12:35:12;;;;;;;2.00;1.40;;;;;;;-128.00;-1.00;-1.00;97827;297;1003397;-30
2023/04/27 12:37:38;;;;;;;2.20;1.10;;;;;;;-128.00;-1.00;-1.00;97636;297;1003973;-33
2023/04/27 12:40:07;;;;;;;6.00;1.10;;;;;;;-128.00;-1.00;-1.00;97782;297;1003618;-33
2023/04/27 12:42:34;;;;;;;2.50;1.60;;;;;;;-128.00;-1.00;-1.00;97887;297;1004842;-36
2023/04/27 12:45:00;;;;;;;4.90;0.90;;;;;;;-128.00;-1.00;-1.00;97823;297;1003641;-33
2023/04/27 12:47:26;;;;;;;8.50;1.10;;;;;;;-128.00;-1.00;-1.00;97875;297;1003876;-33
2023/04/27 12:49:52;;;;;;;1.30;0.90;;;;;;;-128.00;-1.00;-1.00;97899;297;1005264;-33
2023/04/27 12:52:19;;;;;;;3.00;1.70;;;;;;;-128.00;-1.00;-1.00;97733;297;1003213;-33
2023/04/27 12:54:45;;;;;;;3.20;1.00;;;;;;;-128.00;-1.00;-1.00;97892;297;1003876;-33